Time;durP1;ratioP1;P1;durP2;ratioP2;P2;SDS_P1;SDS_P2;PMS_P1;PMS_P2;Temp;Humidity;BMP_temperature;BMP_pressure;BME280_temperature;BME280_humidity;BME280_pressure;Samples;Min_cycle;Max_cycle;Signal;HPM_P1;HPM_P2
2023/08/09 00:01:35;;;;;;;0.40;0.40;;;;;;;20.62;78.28;99569.72;5054005;28;20207;-67
2023/08/09 00:04:02;;;;;;;0.50;0.50;;;;;;;20.58;78.25;99566.50;5053887;28;20210;-67
2023/08/09 00:06:28;;;;;;;0.40;0.40;;;;;;;20.47;78.11;99571.63;5053697;28;20197;-67
2023/08/09 00:08:55;;;;;;;0.50;0.50;;;;;;;20.38;78.28;99564.44;5053844;28;20204;-67
2023/08/09 00:11:22;;;;;;;0.50;0.50;;;;;;;20.32;78.54;99560.47;5053014;28;20592;-67
2023/08/09 00:13:49;;;;;;;0.40;0.40;;;;;;;20.21;79.38;99547.31;5053956;28;20200;-67
2023/08/09 00:16:17;;;;;;;0.60;0.60;;;;;;;20.32;79.16;99564.84;5053639;28;20222;-67
2023/08/09 00:18:44;;;;;;;0.77;0.77;;;;;;;20.27;79.39;99554.75;5053523;28;20281;-67
2023/08/09 00:21:11;;;;;;;0.60;0.60;;;;;;;20.31;80.00;99557.97;5053997;28;20202;-67
2023/08/09 00:23:38;;;;;;;0.43;0.43;;;;;;;20.29;80.35;99555.47;5053203;28;20253;-67
2023/08/09 00:26:05;;;;;;;0.43;0.43;;;;;;;20.27;80.62;99567.75;5053460;28;20566;-67
2023/08/09 00:28:32;;;;;;;0.70;0.70;;;;;;;20.25;80.99;99563.56;5053302;28;20271;-67
2023/08/09 00:30:59;;;;;;;0.30;0.30;;;;;;;20.23;81.12;99561.03;5053407;28;20207;-67
2023/08/09 00:33:27;;;;;;;0.37;0.37;;;;;;;20.20;81.52;99560.41;5053095;28;20255;-67
2023/08/09 00:35:54;;;;;;;0.70;0.70;;;;;;;20.17;81.37;99558.84;5053024;28;20217;-67
2023/08/09 00:38:20;;;;;;;0.40;0.40;;;;;;;20.17;81.37;99560.63;5053235;28;20203;-67
2023/08/09 00:40:47;;;;;;;0.40;0.40;;;;;;;20.14;81.98;99550.41;5053226;28;20197;-67
2023/08/09 00:43:14;;;;;;;0.70;0.70;;;;;;;20.00;82.48;99543.53;5053075;28;20209;-67
2023/08/09 00:45:45;;;;;;;0.50;0.50;;;;;;;19.80;83.38;99529.25;5052704;28;20252;-67
2023/08/09 00:48:12;;;;;;;0.50;0.50;;;;;;;19.77;84.14;99545.03;5052142;28;20205;-67
2023/08/09 00:50:41;;;;;;;0.43;0.43;;;;;;;19.69;84.77;99544.72;5052495;28;20210;-67
2023/08/09 00:53:07;;;;;;;0.40;0.40;;;;;;;19.66;84.62;99550.13;5052683;28;20201;-67
2023/08/09 00:55:34;;;;;;;0.67;0.67;;;;;;;19.66;84.79;99557.94;5052187;28;20202;-67
2023/08/09 00:58:01;;;;;;;0.40;0.40;;;;;;;19.67;84.82;99558.75;5052455;28;20214;-67
2023/08/09 01:00:28;;;;;;;0.70;0.70;;;;;;;19.67;84.74;99556.16;5053332;28;20581;-67
2023/08/09 01:02:55;;;;;;;0.50;0.50;;;;;;;19.70;85.03;99562.00;5049839;28;20638;-67
2023/08/09 01:05:25;;;;;;;0.70;0.70;;;;;;;19.73;85.84;99547.97;5052428;28;20210;-67
2023/08/09 01:08:02;;;;;;;0.47;0.47;;;;;;;19.71;85.63;99553.25;5052667;28;20249;-67
2023/08/09 01:10:34;;;;;;;0.50;0.50;;;;;;;19.70;85.42;99554.19;5051352;28;20204;-67
2023/08/09 01:13:04;;;;;;;0.60;0.60;;;;;;;19.67;84.93;99546.59;5052226;28;20197;-67
2023/08/09 01:15:33;;;;;;;0.50;0.50;;;;;;;19.63;84.73;99554.69;5051301;28;20298;-67
2023/08/09 01:18:03;;;;;;;0.40;0.40;;;;;;;19.63;84.73;99555.53;5052133;28;20651;-67
2023/08/09 01:20:31;;;;;;;0.43;0.43;;;;;;;19.51;84.59;99542.47;5050828;28;20267;-67
2023/08/09 01:23:02;;;;;;;0.63;0.63;;;;;;;19.49;84.79;99552.13;5051698;28;20270;-67
2023/08/09 01:25:31;;;;;;;0.50;0.50;;;;;;;19.41;85.35;99552.63;5049746;28;20200;-67
2023/08/09 01:27:59;;;;;;;0.50;0.50;;;;;;;19.41;85.67;99549.19;5051883;28;20197;-67
2023/08/09 01:30:26;;;;;;;0.50;0.50;;;;;;;19.38;85.83;99552.81;5051982;28;20194;-67
2023/08/09 01:32:54;;;;;;;0.97;0.97;;;;;;;19.34;85.51;99551.31;5049958;28;20197;-67
2023/08/09 01:35:23;;;;;;;0.50;0.50;;;;;;;19.27;85.92;99552.63;5051001;28;20206;-67
2023/08/09 01:37:53;;;;;;;0.50;0.50;;;;;;;19.12;85.85;99538.00;5051333;28;20224;-67
2023/08/09 01:40:22;;;;;;;0.43;0.43;;;;;;;19.10;86.21;99550.25;5051744;28;20566;-67
2023/08/09 01:42:52;;;;;;;0.50;0.50;;;;;;;19.06;86.38;99548.81;5051169;28;20205;-67
2023/08/09 01:45:20;;;;;;;0.57;0.57;;;;;;;19.01;86.72;99545.63;5051255;28;20207;-67
2023/08/09 01:47:47;;;;;;;0.47;0.47;;;;;;;18.98;87.41;99543.22;5051399;28;20294;-67
2023/08/09 01:50:21;;;;;;;0.40;0.40;;;;;;;18.96;87.31;99548.53;5051252;28;20212;-67
2023/08/09 01:52:48;;;;;;;0.40;0.40;;;;;;;18.95;86.80;99546.88;5051491;28;20193;-67
2023/08/09 01:55:17;;;;;;;0.47;0.47;;;;;;;18.90;86.80;99546.31;5050757;28;20643;-67
2023/08/09 01:57:45;;;;;;;0.40;0.40;;;;;;;18.83;87.36;99538.06;5051424;28;20213;-67
2023/08/09 02:00:18;;;;;;;0.50;0.50;;;;;;;18.75;86.74;99535.09;5051479;28;20211;-67
2023/08/09 02:02:45;;;;;;;0.50;0.50;;;;;;;18.76;87.35;99556.72;5050483;28;20684;-67
2023/08/09 02:05:12;;;;;;;0.47;0.47;;;;;;;18.70;87.64;99550.13;5050607;28;20262;-67
2023/08/09 02:07:39;;;;;;;0.50;0.50;;;;;;;18.67;88.08;99558.13;5050230;28;20200;-67
2023/08/09 02:10:07;;;;;;;0.33;0.33;;;;;;;18.56;89.00;99563.13;5050904;28;20201;-67
2023/08/09 02:12:34;;;;;;;0.50;0.50;;;;;;;18.43;88.96;99543.13;5050932;28;20266;-67
2023/08/09 02:15:01;;;;;;;0.40;0.40;;;;;;;18.48;89.30;99560.09;5050914;28;20250;-67
2023/08/09 02:17:29;;;;;;;0.50;0.50;;;;;;;18.45;89.57;99562.88;5050551;28;20208;-67
2023/08/09 02:19:56;;;;;;;0.60;0.60;;;;;;;18.42;89.77;99563.06;5050824;28;20247;-67
2023/08/09 02:22:23;;;;;;;0.53;0.53;;;;;;;18.30;90.24;99566.38;5050648;28;20220;-67
2023/08/09 02:24:50;;;;;;;0.77;0.77;;;;;;;18.19;90.86;99567.00;5050308;28;20668;-67
2023/08/09 02:27:16;;;;;;;0.60;0.60;;;;;;;18.20;90.82;99573.03;5050372;28;20192;-67
2023/08/09 02:29:43;;;;;;;0.63;0.63;;;;;;;18.14;91.35;99578.59;5050396;28;20247;-66
2023/08/09 02:32:10;;;;;;;0.60;0.60;;;;;;;18.01;92.42;99572.44;5050417;28;20318;-67
2023/08/09 02:34:38;;;;;;;0.50;0.50;;;;;;;17.98;92.86;99583.00;5050732;28;20228;-67
2023/08/09 02:37:05;;;;;;;0.40;0.40;;;;;;;17.98;93.08;99581.25;5050442;28;20224;-67
2023/08/09 02:39:33;;;;;;;0.60;0.60;;;;;;;17.99;92.78;99576.88;5050968;28;20207;-67
2023/08/09 02:41:59;;;;;;;0.50;0.50;;;;;;;17.98;92.48;99576.06;5048834;28;20197;-67
2023/08/09 02:44:26;;;;;;;0.60;0.60;;;;;;;17.92;92.81;99585.94;5050392;28;20295;-67
2023/08/09 02:46:53;;;;;;;0.60;0.60;;;;;;;17.88;93.01;99592.22;5050321;28;20208;-67
2023/08/09 02:49:20;;;;;;;0.50;0.50;;;;;;;17.87;93.00;99591.38;5050178;28;20196;-67
2023/08/09 02:51:48;;;;;;;0.40;0.40;;;;;;;17.83;93.04;99595.09;5048668;28;20203;-67
2023/08/09 02:54:16;;;;;;;0.67;0.67;;;;;;;17.80;92.86;99597.88;5047552;28;20207;-67
2023/08/09 02:56:43;;;;;;;0.40;0.40;;;;;;;17.79;93.35;99598.78;5050379;28;20201;-67
2023/08/09 02:59:09;;;;;;;0.53;0.53;;;;;;;17.75;93.77;99603.28;5050035;28;20205;-67
2023/08/09 03:01:36;;;;;;;0.53;0.53;;;;;;;17.76;93.88;99604.13;5050201;28;20204;-67
2023/08/09 03:04:03;;;;;;;0.53;0.53;;;;;;;17.77;93.64;99604.03;5050351;28;20204;-67
2023/08/09 03:06:30;;;;;;;0.50;0.50;;;;;;;17.79;93.51;99610.00;5048616;28;20589;-66
2023/08/09 03:08:58;;;;;;;0.73;0.73;;;;;;;17.82;93.45;99614.16;5050299;28;20719;-67
2023/08/09 03:11:26;;;;;;;0.70;0.70;;;;;;;17.80;93.73;99616.81;5050762;28;20612;-67
2023/08/09 03:13:53;;;;;;;0.40;0.40;;;;;;;17.82;93.96;99622.78;5047269;28;20296;-67
2023/08/09 03:16:20;;;;;;;0.50;0.50;;;;;;;17.87;93.80;99629.47;5049964;28;20204;-67
2023/08/09 03:18:47;;;;;;;0.60;0.60;;;;;;;17.88;93.39;99631.13;5050272;28;20224;-67
2023/08/09 03:21:14;;;;;;;0.50;0.50;;;;;;;17.88;93.35;99638.91;5053437;28;20201;-67
2023/08/09 03:23:42;;;;;;;0.40;0.40;;;;;;;17.86;93.44;99635.56;5053903;28;20703;-67
2023/08/09 03:26:10;;;;;;;0.50;0.50;;;;;;;17.84;93.24;99644.25;5053339;28;20208;-67
2023/08/09 03:28:37;;;;;;;0.60;0.60;;;;;;;17.83;93.35;99642.59;5053691;28;20204;-67
2023/08/09 03:31:04;;;;;;;0.47;0.47;;;;;;;17.83;93.70;99647.78;5053738;28;20254;-67
2023/08/09 03:33:31;;;;;;;0.40;0.40;;;;;;;17.76;93.60;99636.09;5053462;28;20665;-67
2023/08/09 03:35:58;;;;;;;0.47;0.47;;;;;;;17.84;93.73;99641.66;5053823;28;20217;-66
2023/08/09 03:38:25;;;;;;;0.60;0.60;;;;;;;17.77;94.25;99640.34;5054231;28;20212;-66
2023/08/09 03:40:51;;;;;;;0.57;0.57;;;;;;;17.72;94.47;99651.91;5054185;28;20259;-66
2023/08/09 03:43:20;;;;;;;0.40;0.40;;;;;;;17.68;95.03;99648.63;5053600;28;20207;-66
2023/08/09 03:45:46;;;;;;;0.30;0.30;;;;;;;17.63;95.39;99650.66;5053970;28;20192;-67
2023/08/09 03:48:13;;;;;;;0.50;0.50;;;;;;;17.62;95.59;99659.34;5053911;28;20197;-67
2023/08/09 03:50:40;;;;;;;0.47;0.47;;;;;;;17.64;95.76;99659.28;5053544;28;20205;-67
2023/08/09 03:53:07;;;;;;;0.70;0.70;;;;;;;17.71;95.15;99664.03;5053212;28;20204;-66
2023/08/09 03:55:34;;;;;;;0.53;0.53;;;;;;;17.78;94.84;99662.75;5053737;28;20201;-66
2023/08/09 03:58:00;;;;;;;0.73;0.73;;;;;;;17.83;94.25;99668.53;5053265;28;20282;-66
2023/08/09 04:00:29;;;;;;;0.67;0.67;;;;;;;17.90;93.20;99674.19;5053374;28;20197;-67
2023/08/09 04:02:56;;;;;;;1.17;1.17;;;;;;;17.93;92.82;99674.06;5053370;28;20204;-66
2023/08/09 04:05:23;;;;;;;0.60;0.60;;;;;;;17.92;92.28;99676.72;5052990;28;20760;-66
2023/08/09 04:07:50;;;;;;;0.60;0.60;;;;;;;17.91;91.83;99678.47;5053236;28;20247;-67
2023/08/09 04:10:17;;;;;;;0.40;0.40;;;;;;;17.87;91.82;99681.34;5053358;28;20197;-67
2023/08/09 04:12:44;;;;;;;0.70;0.70;;;;;;;17.81;91.93;99685.94;5052833;28;20205;-67
2023/08/09 04:15:11;;;;;;;0.50;0.50;;;;;;;17.81;92.14;99683.34;5053106;28;20657;-67
2023/08/09 04:17:40;;;;;;;0.60;0.60;;;;;;;17.83;92.85;99689.28;5052370;28;20225;-67
2023/08/09 04:20:11;;;;;;;0.57;0.57;;;;;;;17.83;92.86;99683.28;5052887;28;20627;-67
2023/08/09 04:22:38;;;;;;;0.50;0.50;;;;;;;17.85;92.95;99676.22;5051872;28;20286;-66
2023/08/09 04:25:06;;;;;;;0.50;0.50;;;;;;;17.83;93.58;99683.28;5052995;28;20204;-66
2023/08/09 04:27:33;;;;;;;0.60;0.60;;;;;;;17.87;94.39;99678.75;5051045;28;20193;-66
2023/08/09 04:30:00;;;;;;;0.50;0.50;;;;;;;18.02;95.16;99688.25;5052421;28;20200;-67
2023/08/09 04:32:28;;;;;;;0.50;0.50;;;;;;;18.12;95.22;99687.66;5052139;28;20193;-67
2023/08/09 04:34:56;;;;;;;0.40;0.40;;;;;;;18.28;94.52;99690.22;5052813;28;20604;-66
2023/08/09 04:37:24;;;;;;;0.57;0.57;;;;;;;18.38;93.64;99687.94;5051979;28;20639;-67
2023/08/09 04:39:53;;;;;;;0.53;0.53;;;;;;;18.51;93.63;99694.13;5052283;28;20296;-66
2023/08/09 04:42:20;;;;;;;0.40;0.40;;;;;;;18.69;94.64;99699.09;5052632;28;20201;-67
2023/08/09 04:44:47;;;;;;;0.50;0.50;;;;;;;18.94;94.18;99700.22;5052918;28;20208;-67
2023/08/09 04:47:13;;;;;;;0.40;0.40;;;;;;;19.11;90.86;99697.47;5052962;28;20210;-67
2023/08/09 04:49:40;;;;;;;0.63;0.63;;;;;;;19.36;90.95;99702.84;5053110;28;20204;-67
2023/08/09 04:52:09;;;;;;;0.40;0.40;;;;;;;19.62;89.82;99707.28;5052747;28;20201;-67
2023/08/09 04:54:36;;;;;;;0.40;0.40;;;;;;;19.77;88.85;99688.13;5051118;28;20217;-67
2023/08/09 04:57:03;;;;;;;0.57;0.57;;;;;;;20.12;86.23;99704.13;5052884;28;20203;-67
2023/08/09 04:59:30;;;;;;;0.50;0.50;;;;;;;20.14;84.53;99693.59;5052639;28;20231;-67
2023/08/09 05:01:57;;;;;;;0.80;0.80;;;;;;;20.15;84.62;99713.47;5052962;28;20195;-67
2023/08/09 05:04:24;;;;;;;0.50;0.50;;;;;;;20.30;85.38;99707.31;5051693;28;20265;-67
2023/08/09 05:06:51;;;;;;;0.60;0.60;;;;;;;20.47;86.50;99709.66;5052141;28;20200;-67
2023/08/09 05:09:19;;;;;;;0.77;0.77;;;;;;;20.57;82.09;99700.31;5052669;28;20204;-67
2023/08/09 05:11:46;;;;;;;1.80;0.80;;;;;;;20.80;84.40;99702.22;5052879;28;20206;-67
2023/08/09 05:14:13;;;;;;;0.40;0.40;;;;;;;21.15;83.80;99712.03;5052597;28;20218;-67
2023/08/09 05:16:40;;;;;;;0.50;0.50;;;;;;;21.35;78.31;99708.91;5052617;28;20211;-67
2023/08/09 05:19:07;;;;;;;0.63;0.50;;;;;;;21.58;77.63;99705.53;5052036;28;20311;-67
2023/08/09 05:21:33;;;;;;;0.63;0.63;;;;;;;21.80;79.93;99715.25;5052251;28;20204;-67
2023/08/09 05:24:00;;;;;;;0.50;0.50;;;;;;;21.82;75.96;99724.66;5052382;28;20673;-67
2023/08/09 05:26:28;;;;;;;0.43;0.43;;;;;;;22.00;73.97;99721.72;5052230;28;20287;-67
2023/08/09 05:28:55;;;;;;;0.50;0.50;;;;;;;22.10;73.84;99720.09;5051733;28;20246;-67
2023/08/09 05:31:22;;;;;;;0.60;0.60;;;;;;;22.23;73.73;99728.72;5050548;28;20266;-67
2023/08/09 05:33:48;;;;;;;0.50;0.50;;;;;;;22.39;73.04;99718.81;5051633;28;20207;-67
2023/08/09 05:36:15;;;;;;;0.43;0.43;;;;;;;22.54;72.35;99722.91;5048866;28;20204;-71
2023/08/09 05:38:42;;;;;;;0.37;0.37;;;;;;;22.84;73.71;99731.06;5050345;28;20220;-67
2023/08/09 05:41:09;;;;;;;0.47;0.47;;;;;;;23.16;72.27;99725.19;5050714;28;20220;-72
2023/08/09 05:43:37;;;;;;;0.60;0.60;;;;;;;23.42;70.02;99732.75;5044926;28;20213;-66
2023/08/09 05:46:04;;;;;;;0.57;0.57;;;;;;;23.50;68.95;99713.81;5047843;28;20295;-77
2023/08/09 05:48:31;;;;;;;0.30;0.30;;;;;;;23.58;65.36;99724.53;5047735;28;20201;-67
2023/08/09 05:50:57;;;;;;;0.50;0.50;;;;;;;23.69;69.38;99734.13;5048168;28;20212;-67
2023/08/09 05:53:24;;;;;;;0.60;0.60;;;;;;;23.94;66.85;99732.06;5047634;28;20201;-67
2023/08/09 05:55:51;;;;;;;0.50;0.50;;;;;;;24.20;66.70;99731.81;5048051;28;20209;-67
2023/08/09 05:58:18;;;;;;;0.57;0.57;;;;;;;24.24;61.89;99723.56;5047858;28;20263;-67
2023/08/09 06:00:46;;;;;;;0.50;0.50;;;;;;;24.48;62.61;99723.34;5046696;28;20290;-67
2023/08/09 06:03:13;;;;;;;0.33;0.33;;;;;;;24.62;61.02;99730.06;5046796;28;20205;-67
2023/08/09 06:05:40;;;;;;;0.60;0.50;;;;;;;24.76;64.31;99727.97;5047826;28;20236;-68
2023/08/09 06:08:07;;;;;;;0.40;0.40;;;;;;;24.92;59.13;99728.38;5047382;28;20281;-67
2023/08/09 06:10:34;;;;;;;0.50;0.50;;;;;;;25.04;60.08;99735.19;5048574;28;20662;-67
2023/08/09 06:13:01;;;;;;;0.60;0.60;;;;;;;25.21;59.44;99738.19;5047278;28;20215;-67
2023/08/09 06:15:27;;;;;;;0.70;0.60;;;;;;;25.32;58.08;99731.06;5048625;28;20205;-67
2023/08/09 06:17:56;;;;;;;0.83;0.83;;;;;;;25.57;58.70;99729.81;5048303;28;20226;-67
2023/08/09 06:20:23;;;;;;;0.50;0.50;;;;;;;25.85;60.25;99721.16;5048135;28;20204;-67
2023/08/09 06:22:50;;;;;;;0.40;0.40;;;;;;;26.10;58.60;99728.56;5047321;28;20233;-67
2023/08/09 06:25:19;;;;;;;0.60;0.60;;;;;;;26.37;58.44;99724.44;5048843;28;20664;-68
2023/08/09 06:27:45;;;;;;;0.50;0.50;;;;;;;26.48;55.32;99721.69;5049104;28;20546;-68
2023/08/09 06:30:12;;;;;;;0.67;0.67;;;;;;;26.59;54.87;99724.97;5048977;28;20204;-68
2023/08/09 06:32:39;;;;;;;0.43;0.43;;;;;;;26.67;55.36;99721.66;5048886;28;20303;-67
2023/08/09 06:35:09;;;;;;;0.70;0.70;;;;;;;26.81;55.55;99723.91;5050310;28;20643;-65
2023/08/09 06:37:36;;;;;;;0.50;0.50;;;;;;;26.93;55.27;99717.50;5049894;28;20196;-66
2023/08/09 06:40:06;;;;;;;0.80;0.80;;;;;;;26.98;53.56;99720.50;5046739;28;20311;-66
2023/08/09 06:42:33;;;;;;;0.60;0.60;;;;;;;26.97;50.73;99708.34;5049858;28;20604;-67
2023/08/09 06:45:00;;;;;;;0.50;0.50;;;;;;;27.02;50.71;99719.25;5049900;28;20633;-66
2023/08/09 06:47:26;;;;;;;0.57;0.57;;;;;;;27.19;50.53;99719.50;5049117;28;20204;-66
2023/08/09 06:49:53;;;;;;;0.40;0.40;;;;;;;27.29;50.46;99722.91;5049596;28;20193;-66
2023/08/09 06:52:21;;;;;;;0.37;0.37;;;;;;;27.57;49.76;99719.34;5046479;28;20205;-67
2023/08/09 06:54:48;;;;;;;0.60;0.60;;;;;;;27.76;47.73;99723.69;5051767;28;20209;-67
2023/08/09 06:57:15;;;;;;;0.40;0.40;;;;;;;27.67;46.73;99717.50;5054479;28;20200;-67
2023/08/09 06:59:42;;;;;;;0.30;0.30;;;;;;;27.73;46.97;99706.38;5054307;28;20308;-68
2023/08/09 07:02:10;;;;;;;0.40;0.40;;;;;;;27.85;46.25;99721.00;5055015;28;20205;-67
2023/08/09 07:04:38;;;;;;;0.40;0.40;;;;;;;27.93;47.11;99712.34;5051989;28;20215;-70
2023/08/09 07:07:05;;;;;;;0.40;0.40;;;;;;;27.91;48.31;99709.88;5050850;28;20204;-69
2023/08/09 07:09:34;;;;;;;0.40;0.40;;;;;;;27.87;46.16;99700.59;5049864;28;20287;-70
2023/08/09 07:12:00;;;;;;;0.50;0.50;;;;;;;27.81;46.74;99693.31;5052676;28;20207;-71
2023/08/09 07:14:27;;;;;;;0.40;0.40;;;;;;;27.89;48.66;99696.00;5051292;28;20287;-68
2023/08/09 07:16:54;;;;;;;0.40;0.40;;;;;;;27.82;46.77;99700.22;5052605;28;20231;-68
2023/08/09 07:19:21;;;;;;;0.40;0.40;;;;;;;27.83;45.90;99696.59;5053120;28;20225;-69
2023/08/09 07:21:48;;;;;;;0.40;0.40;;;;;;;27.77;45.54;99697.19;5053267;28;20247;-70
2023/08/09 07:24:15;;;;;;;0.50;0.37;;;;;;;27.56;44.89;99701.91;5053098;28;20208;-69
2023/08/09 07:26:45;;;;;;;0.40;0.40;;;;;;;27.64;46.45;99696.72;5047944;28;20616;-68
2023/08/09 07:29:12;;;;;;;0.40;0.40;;;;;;;27.92;48.21;99685.16;5051003;28;20204;-70
2023/08/09 07:31:39;;;;;;;0.33;0.33;;;;;;;28.28;48.81;99695.75;5054083;28;20200;-69
2023/08/09 07:34:06;;;;;;;0.40;0.40;;;;;;;28.39;45.03;99690.25;5053611;28;20200;-68
2023/08/09 07:36:33;;;;;;;0.20;0.20;;;;;;;28.23;45.58;99690.09;5053320;28;20208;-68
2023/08/09 07:38:59;;;;;;;0.30;0.30;;;;;;;28.08;42.58;99690.63;5052970;28;20212;-69
2023/08/09 07:41:26;;;;;;;0.23;0.23;;;;;;;27.57;45.19;99685.13;5049685;28;20213;-70
2023/08/09 07:43:54;;;;;;;0.40;0.40;;;;;;;27.93;45.23;99692.09;5052056;28;20197;-66
2023/08/09 07:46:21;;;;;;;0.47;0.47;;;;;;;28.20;47.33;99671.97;5053291;28;20243;-69
2023/08/09 07:48:50;;;;;;;0.40;0.40;;;;;;;28.53;45.75;99689.72;5049562;28;20197;-67
2023/08/09 07:51:16;;;;;;;0.30;0.30;;;;;;;28.62;41.63;99684.34;5051577;28;20220;-72
2023/08/09 07:53:44;;;;;;;0.40;0.40;;;;;;;28.71;44.49;99681.78;5053723;28;20550;-72
2023/08/09 07:56:11;;;;;;;0.43;0.43;;;;;;;28.96;44.37;99676.50;5052202;28;20581;-70
2023/08/09 07:58:37;;;;;;;0.52;0.52;;;;;;;29.27;45.21;99676.84;5051974;28;20244;-70
2023/08/09 08:01:06;;;;;;;0.30;0.30;;;;;;;29.56;42.84;99673.81;5052484;28;20321;-67
2023/08/09 08:03:33;;;;;;;0.40;0.40;;;;;;;29.55;42.06;99666.88;5051482;28;20208;-68
2023/08/09 08:06:00;;;;;;;0.40;0.40;;;;;;;29.72;41.56;99665.94;5052191;28;20235;-69
2023/08/09 08:08:27;;;;;;;0.40;0.40;;;;;;;29.64;39.91;99656.16;5045799;28;20283;-70
2023/08/09 08:10:54;;;;;;;0.32;0.32;;;;;;;29.34;42.65;99664.66;5049912;28;20250;-69
2023/08/09 08:13:21;;;;;;;0.50;0.50;;;;;;;29.43;42.19;99668.16;5050281;28;20234;-70
2023/08/09 08:15:48;;;;;;;0.30;0.30;;;;;;;29.53;44.02;99658.28;5052187;28;20622;-71
2023/08/09 08:18:16;;;;;;;0.35;0.35;;;;;;;29.33;43.12;99662.19;5048108;28;20657;-70
2023/08/09 08:20:43;;;;;;;0.47;0.47;;;;;;;29.51;42.22;99649.69;5052601;28;20227;-70
2023/08/09 08:23:10;;;;;;;0.40;0.40;;;;;;;29.74;41.74;99656.03;5047989;28;20235;-69
2023/08/09 08:25:37;;;;;;;0.40;0.40;;;;;;;29.81;41.82;99657.03;5050875;28;20204;-70
2023/08/09 08:28:04;;;;;;;0.50;0.50;;;;;;;29.99;42.69;99655.09;5051232;28;20203;-69
2023/08/09 08:30:31;;;;;;;0.30;0.30;;;;;;;29.23;39.23;99650.88;5050883;28;20209;-69
2023/08/09 08:32:58;;;;;;;0.50;0.50;;;;;;;29.08;41.53;99648.81;5051589;28;20232;-68
2023/08/09 08:35:33;;;;;;;0.30;0.30;;;;;;;29.40;41.88;99645.53;5051157;28;20550;-69
2023/08/09 08:38:00;;;;;;;0.45;0.45;;;;;;;29.46;43.33;99649.34;5050368;28;20227;-70
2023/08/09 08:40:27;;;;;;;0.30;0.30;;;;;;;29.15;41.56;99641.94;5051081;28;20225;-68
2023/08/09 08:42:54;;;;;;;0.40;0.40;;;;;;;28.79;42.96;99653.63;5052193;28;20193;-68
2023/08/09 08:45:21;;;;;;;0.30;0.30;;;;;;;28.47;44.13;99637.53;5049440;28;21033;-68
2023/08/09 08:47:49;;;;;;;0.40;0.40;;;;;;;28.14;43.76;99642.56;5047770;28;20201;-69
2023/08/09 08:50:17;;;;;;;0.37;0.37;;;;;;;28.38;43.84;99638.47;5050317;28;20200;-70
2023/08/09 08:52:47;;;;;;;0.40;0.40;;;;;;;28.49;44.89;99635.59;5048081;28;20212;-69
2023/08/09 08:55:14;;;;;;;0.40;0.40;;;;;;;28.52;44.64;99619.47;5048764;28;20208;-69
2023/08/09 08:57:45;;;;;;;0.30;0.30;;;;;;;28.47;46.39;99622.56;5050479;28;20680;-69
2023/08/09 09:00:17;;;;;;;0.33;0.33;;;;;;;28.20;44.51;99619.22;5051829;28;20223;-69
2023/08/09 09:02:44;;;;;;;0.20;0.20;;;;;;;28.42;44.68;99597.63;5051515;28;20295;-69
2023/08/09 09:05:11;;;;;;;0.40;0.40;;;;;;;28.55;45.16;99613.88;5052138;28;20744;-69
2023/08/09 09:07:39;;;;;;;0.30;0.30;;;;;;;28.39;45.76;99611.13;5051618;28;20197;-68
2023/08/09 09:10:10;;;;;;;0.60;0.60;;;;;;;28.27;45.78;99607.94;5051661;28;20200;-68
2023/08/09 09:12:37;;;;;;;0.33;0.33;;;;;;;28.28;43.80;99606.09;5051635;28;20232;-69
2023/08/09 09:15:06;;;;;;;0.47;0.47;;;;;;;28.36;43.87;99599.09;5051370;28;20201;-69
2023/08/09 09:17:38;;;;;;;0.40;0.40;;;;;;;28.12;44.34;99583.06;5051073;28;20262;-70
2023/08/09 09:20:10;;;;;;;0.40;0.40;;;;;;;28.20;44.94;99575.25;5051765;28;20252;-69
2023/08/09 09:22:36;;;;;;;0.30;0.30;;;;;;;28.19;44.93;99596.47;5049383;28;20232;-69
2023/08/09 09:25:10;;;;;;;0.23;0.23;;;;;;;28.36;44.85;99591.19;5047918;28;20234;-69
2023/08/09 09:27:39;;;;;;;0.30;0.30;;;;;;;28.50;43.49;99579.19;5050218;28;20594;-71
2023/08/09 09:30:12;;;;;;;0.30;0.30;;;;;;;28.60;43.94;99579.94;5046295;28;20196;-69
2023/08/09 09:32:40;;;;;;;0.30;0.30;;;;;;;28.85;43.20;99584.41;5048691;28;20207;-69
2023/08/09 09:35:08;;;;;;;0.20;0.20;;;;;;;28.85;43.50;99584.41;5049558;28;20296;-69
2023/08/09 09:37:36;;;;;;;1.10;0.50;;;;;;;28.93;45.24;99581.78;5049988;28;20255;-69
2023/08/09 09:40:10;;;;;;;0.30;0.30;;;;;;;29.14;43.19;99579.53;5046732;28;20594;-69
2023/08/09 09:42:38;;;;;;;0.30;0.30;;;;;;;29.14;42.75;99574.25;5048405;28;20196;-69
2023/08/09 09:45:09;;;;;;;0.22;0.22;;;;;;;29.02;42.06;99567.63;5047663;28;20204;-69
2023/08/09 09:47:38;;;;;;;0.30;0.30;;;;;;;29.11;44.59;99577.22;5048249;28;20201;-69
2023/08/09 09:50:08;;;;;;;2.60;0.40;;;;;;;29.30;42.44;99562.13;5047653;28;20447;-67
2023/08/09 09:52:36;;;;;;;0.30;0.30;;;;;;;29.31;42.90;99542.66;5049211;28;20208;-67
2023/08/09 09:55:04;;;;;;;0.20;0.20;;;;;;;29.47;42.18;99540.03;5049981;28;20672;-67
2023/08/09 09:57:31;;;;;;;0.35;0.35;;;;;;;29.59;40.69;99552.78;5050133;28;20204;-67
2023/08/09 10:00:01;;;;;;;0.40;0.40;;;;;;;29.37;40.20;99552.59;5049874;28;20217;-67
2023/08/09 10:02:35;;;;;;;1.63;0.32;;;;;;;29.33;42.00;99561.81;5047544;28;20811;-67
2023/08/09 10:05:04;;;;;;;4.57;0.40;;;;;;;29.19;42.34;99556.13;5049047;28;20596;-65
2023/08/09 10:07:32;;;;;;;0.28;0.28;;;;;;;29.10;42.14;99545.72;5047969;28;20304;-67
2023/08/09 10:10:02;;;;;;;0.20;0.20;;;;;;;29.31;41.58;99558.50;5049397;28;20558;-66
2023/08/09 10:12:30;;;;;;;0.30;0.30;;;;;;;28.94;39.54;99551.78;5043654;28;20232;-68
2023/08/09 10:15:00;;;;;;;0.30;0.30;;;;;;;29.03;40.86;99553.44;5048286;28;20197;-72
2023/08/09 10:17:29;;;;;;;0.40;0.40;;;;;;;29.15;40.81;99552.16;5048059;28;20208;-66
2023/08/09 10:19:59;;;;;;;0.25;0.22;;;;;;;29.07;39.86;99548.69;5048783;28;20253;-67
2023/08/09 10:22:26;;;;;;;0.28;0.28;;;;;;;29.16;41.21;99539.78;5048133;28;20315;-67
2023/08/09 10:24:57;;;;;;;0.40;0.40;;;;;;;29.18;40.42;99533.34;5048064;28;20204;-66
2023/08/09 10:27:51;;;;;;;0.30;0.30;;;;;;;29.10;39.00;99535.16;5048159;28;20208;-65
2023/08/09 10:30:20;;;;;;;0.30;0.30;;;;;;;29.21;40.22;99542.75;5046177;28;20663;-67
2023/08/09 10:32:55;;;;;;;0.30;0.30;;;;;;;28.93;39.51;99529.00;5048466;28;20201;-66
2023/08/09 10:35:45;;;;;;;0.30;0.30;;;;;;;28.89;38.89;99522.38;5048614;28;20208;-66
2023/08/09 10:38:13;;;;;;;0.30;0.30;;;;;;;29.04;40.72;99526.06;5047853;28;20208;-68
2023/08/09 10:40:42;;;;;;;0.40;0.40;;;;;;;28.94;38.81;99522.75;5048835;28;20315;-67
2023/08/09 10:43:09;;;;;;;0.25;0.25;;;;;;;28.99;39.57;99517.78;5048592;28;20236;-68
2023/08/09 10:45:38;;;;;;;0.30;0.30;;;;;;;29.17;39.41;99509.75;5047265;28;20243;-68
2023/08/09 10:48:21;;;;;;;0.30;0.30;;;;;;;29.33;39.14;99519.56;5049221;28;20216;-68
2023/08/09 10:50:48;;;;;;;0.30;0.30;;;;;;;29.10;39.01;99514.88;5046892;28;20279;-68
2023/08/09 10:53:22;;;;;;;0.30;0.30;;;;;;;29.16;40.00;99503.66;5049043;28;20281;-68
2023/08/09 10:55:49;;;;;;;0.40;0.40;;;;;;;29.27;38.73;99499.09;5047653;28;20288;-68
2023/08/09 10:58:16;;;;;;;0.28;0.28;;;;;;;29.27;39.69;99493.81;5047902;28;20535;-69
2023/08/09 11:00:44;;;;;;;0.30;0.30;;;;;;;29.05;38.34;99511.03;5048616;28;20462;-67
2023/08/09 11:03:12;;;;;;;0.30;0.30;;;;;;;29.15;40.38;99491.44;5050288;28;20235;-68
2023/08/09 11:05:39;;;;;;;0.30;0.30;;;;;;;29.33;40.80;99488.69;5049793;28;20279;-67
2023/08/09 11:08:19;;;;;;;0.52;0.50;;;;;;;29.49;39.62;99494.00;5050153;28;20205;-68
2023/08/09 11:10:48;;;;;;;0.28;0.28;;;;;;;29.28;38.49;99490.97;5047655;28;20275;-68
2023/08/09 11:13:18;;;;;;;0.32;0.32;;;;;;;28.88;39.10;99489.06;5050582;28;20669;-68
2023/08/09 11:15:48;;;;;;;0.30;0.30;;;;;;;28.96;39.32;99486.44;5050220;28;20204;-68
2023/08/09 11:18:15;;;;;;;0.40;0.40;;;;;;;29.09;40.11;99476.25;5046971;28;20653;-68
2023/08/09 11:20:42;;;;;;;0.30;0.30;;;;;;;28.90;38.66;99460.69;5049243;28;20643;-67
2023/08/09 11:23:09;;;;;;;0.30;0.30;;;;;;;28.68;38.92;99471.84;5046720;28;20459;-68
2023/08/09 11:25:36;;;;;;;0.50;0.50;;;;;;;28.88;37.84;99446.84;5047901;28;20462;-69
2023/08/09 11:28:06;;;;;;;0.30;0.30;;;;;;;29.09;38.04;99455.13;5048383;28;20573;-69
2023/08/09 11:30:34;;;;;;;0.38;0.38;;;;;;;29.09;39.14;99460.41;5048854;28;20204;-69
2023/08/09 11:33:04;;;;;;;0.40;0.40;;;;;;;29.27;40.48;99464.75;5048376;28;20696;-68
2023/08/09 11:35:33;;;;;;;0.80;0.47;;;;;;;29.36;39.14;99466.41;5048451;28;20215;-71
2023/08/09 11:38:00;;;;;;;0.30;0.30;;;;;;;29.35;37.60;99465.56;5048365;28;20213;-71